sensor_id;sensor_type;location;lat;lon;timestamp;P1;durP1;ratioP1;P2;durP2;ratioP2
35188;SDS011;21762;54.480;18.556;2022-10-16T00:00:57;71.45;;;29.95;;
35188;SDS011;21762;54.480;18.556;2022-10-16T00:03:25;70.45;;;31.02;;
35188;SDS011;21762;54.480;18.556;2022-10-16T00:05:58;79.55;;;31.88;;
35188;SDS011;21762;54.480;18.556;2022-10-16T00:11:06;69.60;;;28.30;;
35188;SDS011;21762;54.480;18.556;2022-10-16T00:13:36;78.28;;;30.33;;
35188;SDS011;21762;54.480;18.556;2022-10-16T00:16:08;72.57;;;30.67;;
35188;SDS011;21762;54.480;18.556;2022-10-16T00:18:36;66.38;;;28.83;;
35188;SDS011;21762;54.480;18.556;2022-10-16T00:21:05;72.22;;;30.05;;
35188;SDS011;21762;54.480;18.556;2022-10-16T00:23:55;75.82;;;32.42;;
35188;SDS011;21762;54.480;18.556;2022-10-16T00:26:28;75.28;;;31.00;;
35188;SDS011;21762;54.480;18.556;2022-10-16T00:28:57;82.72;;;34.42;;
35188;SDS011;21762;54.480;18.556;2022-10-16T00:31:26;81.68;;;34.42;;
35188;SDS011;21762;54.480;18.556;2022-10-16T00:33:54;86.95;;;36.25;;
35188;SDS011;21762;54.480;18.556;2022-10-16T00:36:23;93.05;;;36.55;;
35188;SDS011;21762;54.480;18.556;2022-10-16T00:38:52;80.72;;;35.15;;
35188;SDS011;21762;54.480;18.556;2022-10-16T00:41:22;75.93;;;34.90;;
35188;SDS011;21762;54.480;18.556;2022-10-16T00:43:53;80.90;;;34.13;;
35188;SDS011;21762;54.480;18.556;2022-10-16T00:46:22;86.28;;;34.53;;
35188;SDS011;21762;54.480;18.556;2022-10-16T00:48:52;82.43;;;33.15;;
35188;SDS011;21762;54.480;18.556;2022-10-16T00:53:56;80.53;;;33.22;;
35188;SDS011;21762;54.480;18.556;2022-10-16T00:56:24;74.13;;;27.83;;
35188;SDS011;21762;54.480;18.556;2022-10-16T00:58:54;85.10;;;30.05;;
35188;SDS011;21762;54.480;18.556;2022-10-16T01:01:22;88.68;;;33.33;;
35188;SDS011;21762;54.480;18.556;2022-10-16T01:03:50;86.43;;;30.65;;
35188;SDS011;21762;54.480;18.556;2022-10-16T01:06:22;94.32;;;31.40;;
35188;SDS011;21762;54.480;18.556;2022-10-16T01:09:02;92.80;;;32.28;;
35188;SDS011;21762;54.480;18.556;2022-10-16T01:11:36;80.15;;;29.90;;
35188;SDS011;21762;54.480;18.556;2022-10-16T01:14:11;74.80;;;30.85;;
35188;SDS011;21762;54.480;18.556;2022-10-16T01:16:43;77.68;;;29.10;;
35188;SDS011;21762;54.480;18.556;2022-10-16T01:21:44;65.68;;;26.25;;
35188;SDS011;21762;54.480;18.556;2022-10-16T01:24:17;63.13;;;25.52;;
35188;SDS011;21762;54.480;18.556;2022-10-16T01:29:45;61.65;;;24.30;;
35188;SDS011;21762;54.480;18.556;2022-10-16T01:32:18;54.38;;;22.88;;
35188;SDS011;21762;54.480;18.556;2022-10-16T01:34:52;57.38;;;23.33;;
35188;SDS011;21762;54.480;18.556;2022-10-16T01:37:24;54.67;;;22.25;;
35188;SDS011;21762;54.480;18.556;2022-10-16T01:39:58;44.42;;;19.83;;
35188;SDS011;21762;54.480;18.556;2022-10-16T01:42:30;45.90;;;21.05;;
35188;SDS011;21762;54.480;18.556;2022-10-16T01:45:01;49.42;;;21.65;;
35188;SDS011;21762;54.480;18.556;2022-10-16T01:47:33;44.20;;;21.50;;
35188;SDS011;21762;54.480;18.556;2022-10-16T01:50:02;48.42;;;23.50;;
35188;SDS011;21762;54.480;18.556;2022-10-16T01:52:33;48.25;;;22.13;;
35188;SDS011;21762;54.480;18.556;2022-10-16T01:55:03;43.03;;;20.52;;
35188;SDS011;21762;54.480;18.556;2022-10-16T01:57:34;43.58;;;21.20;;
35188;SDS011;21762;54.480;18.556;2022-10-16T02:00:05;38.08;;;19.50;;
35188;SDS011;21762;54.480;18.556;2022-10-16T02:02:39;41.15;;;19.40;;
35188;SDS011;21762;54.480;18.556;2022-10-16T02:05:12;39.88;;;18.83;;
35188;SDS011;21762;54.480;18.556;2022-10-16T02:07:45;42.47;;;21.13;;
35188;SDS011;21762;54.480;18.556;2022-10-16T02:10:15;46.72;;;21.10;;
35188;SDS011;21762;54.480;18.556;2022-10-16T02:12:45;39.50;;;20.08;;
35188;SDS011;21762;54.480;18.556;2022-10-16T02:15:17;34.53;;;18.42;;
35188;SDS011;21762;54.480;18.556;2022-10-16T02:17:45;32.70;;;18.42;;
35188;SDS011;21762;54.480;18.556;2022-10-16T02:20:13;36.28;;;18.10;;
35188;SDS011;21762;54.480;18.556;2022-10-16T02:22:42;35.53;;;17.83;;
35188;SDS011;21762;54.480;18.556;2022-10-16T02:25:15;30.95;;;17.00;;
35188;SDS011;21762;54.480;18.556;2022-10-16T02:27:47;31.10;;;16.63;;
35188;SDS011;21762;54.480;18.556;2022-10-16T02:30:22;30.52;;;16.98;;
35188;SDS011;21762;54.480;18.556;2022-10-16T02:32:55;30.67;;;16.55;;
35188;SDS011;21762;54.480;18.556;2022-10-16T02:35:24;33.35;;;17.65;;
35188;SDS011;21762;54.480;18.556;2022-10-16T02:37:53;28.00;;;14.82;;
35188;SDS011;21762;54.480;18.556;2022-10-16T02:40:22;27.05;;;15.93;;
35188;SDS011;21762;54.480;18.556;2022-10-16T02:42:52;30.55;;;16.73;;
35188;SDS011;21762;54.480;18.556;2022-10-16T02:45:21;27.90;;;15.95;;
35188;SDS011;21762;54.480;18.556;2022-10-16T02:47:49;33.78;;;17.13;;
35188;SDS011;21762;54.480;18.556;2022-10-16T02:50:17;28.00;;;15.30;;
35188;SDS011;21762;54.480;18.556;2022-10-16T02:52:46;25.40;;;15.32;;
35188;SDS011;21762;54.480;18.556;2022-10-16T02:55:14;29.27;;;16.58;;
35188;SDS011;21762;54.480;18.556;2022-10-16T02:57:42;31.67;;;17.52;;
35188;SDS011;21762;54.480;18.556;2022-10-16T03:00:14;25.65;;;14.98;;
35188;SDS011;21762;54.480;18.556;2022-10-16T03:02:43;28.98;;;16.33;;
35188;SDS011;21762;54.480;18.556;2022-10-16T03:05:11;29.58;;;16.08;;
35188;SDS011;21762;54.480;18.556;2022-10-16T03:07:39;31.63;;;16.20;;
35188;SDS011;21762;54.480;18.556;2022-10-16T03:10:07;29.60;;;16.40;;
35188;SDS011;21762;54.480;18.556;2022-10-16T03:12:36;40.50;;;20.80;;
35188;SDS011;21762;54.480;18.556;2022-10-16T03:15:05;36.28;;;19.92;;
35188;SDS011;21762;54.480;18.556;2022-10-16T03:17:35;45.10;;;22.35;;
35188;SDS011;21762;54.480;18.556;2022-10-16T03:20:07;45.55;;;22.83;;
35188;SDS011;21762;54.480;18.556;2022-10-16T03:22:35;41.33;;;23.10;;
35188;SDS011;21762;54.480;18.556;2022-10-16T03:25:03;47.67;;;24.73;;
35188;SDS011;21762;54.480;18.556;2022-10-16T03:27:32;50.53;;;27.13;;
35188;SDS011;21762;54.480;18.556;2022-10-16T03:30:02;49.88;;;25.98;;
35188;SDS011;21762;54.480;18.556;2022-10-16T03:32:30;53.15;;;26.80;;
35188;SDS011;21762;54.480;18.556;2022-10-16T03:35:00;42.72;;;24.08;;
35188;SDS011;21762;54.480;18.556;2022-10-16T03:37:28;55.72;;;25.20;;
35188;SDS011;21762;54.480;18.556;2022-10-16T03:39:56;58.53;;;25.88;;
35188;SDS011;21762;54.480;18.556;2022-10-16T03:42:24;47.47;;;24.55;;
35188;SDS011;21762;54.480;18.556;2022-10-16T03:44:52;49.65;;;24.45;;
35188;SDS011;21762;54.480;18.556;2022-10-16T03:47:20;45.97;;;23.58;;
35188;SDS011;21762;54.480;18.556;2022-10-16T03:49:50;43.13;;;21.88;;
35188;SDS011;21762;54.480;18.556;2022-10-16T03:52:19;44.72;;;23.08;;
35188;SDS011;21762;54.480;18.556;2022-10-16T03:54:47;47.08;;;20.83;;
35188;SDS011;21762;54.480;18.556;2022-10-16T03:57:15;42.42;;;20.67;;
35188;SDS011;21762;54.480;18.556;2022-10-16T03:59:43;42.47;;;21.23;;
35188;SDS011;21762;54.480;18.556;2022-10-16T04:02:11;35.20;;;20.17;;
35188;SDS011;21762;54.480;18.556;2022-10-16T04:04:40;40.47;;;20.55;;
35188;SDS011;21762;54.480;18.556;2022-10-16T04:07:08;41.97;;;20.75;;
35188;SDS011;21762;54.480;18.556;2022-10-16T04:09:37;37.20;;;19.05;;
35188;SDS011;21762;54.480;18.556;2022-10-16T04:12:05;42.40;;;20.38;;
35188;SDS011;21762;54.480;18.556;2022-10-16T04:14:33;37.22;;;18.52;;
35188;SDS011;21762;54.480;18.556;2022-10-16T04:17:01;36.47;;;19.23;;
35188;SDS011;21762;54.480;18.556;2022-10-16T04:19:32;33.55;;;17.83;;
35188;SDS011;21762;54.480;18.556;2022-10-16T04:22:00;39.50;;;18.83;;
35188;SDS011;21762;54.480;18.556;2022-10-16T04:24:28;31.08;;;17.73;;
35188;SDS011;21762;54.480;18.556;2022-10-16T04:26:57;28.45;;;16.88;;
35188;SDS011;21762;54.480;18.556;2022-10-16T04:29:27;30.02;;;17.95;;
35188;SDS011;21762;54.480;18.556;2022-10-16T04:31:55;34.28;;;18.20;;
35188;SDS011;21762;54.480;18.556;2022-10-16T04:34:23;33.80;;;17.30;;
35188;SDS011;21762;54.480;18.556;2022-10-16T04:36:51;31.85;;;17.08;;
35188;SDS011;21762;54.480;18.556;2022-10-16T04:39:19;27.88;;;16.42;;
35188;SDS011;21762;54.480;18.556;2022-10-16T04:41:47;33.45;;;17.88;;
35188;SDS011;21762;54.480;18.556;2022-10-16T04:44:17;31.30;;;16.30;;
35188;SDS011;21762;54.480;18.556;2022-10-16T04:46:47;32.70;;;16.75;;
35188;SDS011;21762;54.480;18.556;2022-10-16T04:49:18;33.50;;;17.27;;
35188;SDS011;21762;54.480;18.556;2022-10-16T04:51:49;29.92;;;16.25;;
35188;SDS011;21762;54.480;18.556;2022-10-16T04:54:20;26.92;;;16.63;;
35188;SDS011;21762;54.480;18.556;2022-10-16T04:56:48;29.20;;;16.35;;
35188;SDS011;21762;54.480;18.556;2022-10-16T04:59:20;27.60;;;16.10;;
35188;SDS011;21762;54.480;18.556;2022-10-16T05:01:48;26.95;;;15.82;;
35188;SDS011;21762;54.480;18.556;2022-10-16T05:04:16;27.23;;;16.50;;
35188;SDS011;21762;54.480;18.556;2022-10-16T05:06:47;27.30;;;15.27;;
35188;SDS011;21762;54.480;18.556;2022-10-16T05:09:15;27.08;;;16.33;;
35188;SDS011;21762;54.480;18.556;2022-10-16T05:11:44;31.80;;;17.58;;
35188;SDS011;21762;54.480;18.556;2022-10-16T05:14:12;26.08;;;15.75;;
35188;SDS011;21762;54.480;18.556;2022-10-16T05:16:41;29.05;;;16.63;;
35188;SDS011;21762;54.480;18.556;2022-10-16T05:19:09;31.88;;;17.67;;
35188;SDS011;21762;54.480;18.556;2022-10-16T05:21:53;35.38;;;18.17;;
35188;SDS011;21762;54.480;18.556;2022-10-16T05:24:21;33.13;;;18.23;;
35188;SDS011;21762;54.480;18.556;2022-10-16T05:26:50;35.95;;;19.10;;
35188;SDS011;21762;54.480;18.556;2022-10-16T05:29:18;41.08;;;21.77;;
35188;SDS011;21762;54.480;18.556;2022-10-16T05:31:49;52.05;;;21.92;;
35188;SDS011;21762;54.480;18.556;2022-10-16T05:34:21;45.25;;;21.10;;
35188;SDS011;21762;54.480;18.556;2022-10-16T05:36:49;45.55;;;22.63;;
35188;SDS011;21762;54.480;18.556;2022-10-16T05:39:17;44.60;;;22.25;;
35188;SDS011;21762;54.480;18.556;2022-10-16T05:41:45;43.75;;;22.05;;
35188;SDS011;21762;54.480;18.556;2022-10-16T05:44:14;46.92;;;23.38;;
35188;SDS011;21762;54.480;18.556;2022-10-16T05:46:42;44.58;;;22.85;;
35188;SDS011;21762;54.480;18.556;2022-10-16T05:49:12;50.38;;;23.35;;
35188;SDS011;21762;54.480;18.556;2022-10-16T05:51:40;41.95;;;23.08;;
35188;SDS011;21762;54.480;18.556;2022-10-16T05:54:08;47.78;;;24.35;;
35188;SDS011;21762;54.480;18.556;2022-10-16T05:56:36;44.00;;;23.30;;
35188;SDS011;21762;54.480;18.556;2022-10-16T05:59:04;44.92;;;23.52;;
35188;SDS011;21762;54.480;18.556;2022-10-16T06:01:35;51.27;;;24.43;;
35188;SDS011;21762;54.480;18.556;2022-10-16T06:04:04;49.85;;;25.63;;
35188;SDS011;21762;54.480;18.556;2022-10-16T06:06:33;50.30;;;26.33;;
35188;SDS011;21762;54.480;18.556;2022-10-16T06:09:03;51.78;;;27.38;;
35188;SDS011;21762;54.480;18.556;2022-10-16T06:11:37;54.20;;;28.40;;
35188;SDS011;21762;54.480;18.556;2022-10-16T06:14:05;51.47;;;26.73;;
35188;SDS011;21762;54.480;18.556;2022-10-16T06:16:36;48.83;;;26.87;;
35188;SDS011;21762;54.480;18.556;2022-10-16T06:19:05;51.63;;;26.60;;
35188;SDS011;21762;54.480;18.556;2022-10-16T06:21:38;48.95;;;26.00;;
35188;SDS011;21762;54.480;18.556;2022-10-16T06:24:06;48.33;;;24.15;;
35188;SDS011;21762;54.480;18.556;2022-10-16T06:26:34;45.83;;;24.15;;
35188;SDS011;21762;54.480;18.556;2022-10-16T06:29:02;49.17;;;27.05;;
35188;SDS011;21762;54.480;18.556;2022-10-16T06:31:30;48.38;;;25.65;;
35188;SDS011;21762;54.480;18.556;2022-10-16T06:33:59;46.50;;;24.52;;
35188;SDS011;21762;54.480;18.556;2022-10-16T06:36:28;47.72;;;25.30;;
35188;SDS011;21762;54.480;18.556;2022-10-16T06:38:58;47.63;;;24.67;;
35188;SDS011;21762;54.480;18.556;2022-10-16T06:41:26;47.70;;;24.45;;
35188;SDS011;21762;54.480;18.556;2022-10-16T06:43:56;43.30;;;25.10;;
35188;SDS011;21762;54.480;18.556;2022-10-16T06:46:25;41.88;;;24.20;;
35188;SDS011;21762;54.480;18.556;2022-10-16T06:48:58;42.03;;;23.67;;
35188;SDS011;21762;54.480;18.556;2022-10-16T06:51:26;38.25;;;21.50;;
35188;SDS011;21762;54.480;18.556;2022-10-16T06:54:01;39.30;;;22.75;;
35188;SDS011;21762;54.480;18.556;2022-10-16T06:56:32;41.83;;;22.92;;
35188;SDS011;21762;54.480;18.556;2022-10-16T06:59:01;44.45;;;21.95;;
35188;SDS011;21762;54.480;18.556;2022-10-16T07:01:30;49.35;;;24.10;;
35188;SDS011;21762;54.480;18.556;2022-10-16T07:03:58;45.55;;;25.48;;
35188;SDS011;21762;54.480;18.556;2022-10-16T07:06:26;44.00;;;25.73;;
35188;SDS011;21762;54.480;18.556;2022-10-16T07:08:57;44.28;;;24.92;;
35188;SDS011;21762;54.480;18.556;2022-10-16T07:11:26;42.85;;;24.23;;
35188;SDS011;21762;54.480;18.556;2022-10-16T07:13:55;46.45;;;23.52;;
35188;SDS011;21762;54.480;18.556;2022-10-16T07:16:23;43.17;;;24.05;;
35188;SDS011;21762;54.480;18.556;2022-10-16T07:18:53;40.92;;;23.45;;
35188;SDS011;21762;54.480;18.556;2022-10-16T07:21:25;37.95;;;22.10;;
35188;SDS011;21762;54.480;18.556;2022-10-16T07:23:56;36.55;;;21.30;;
35188;SDS011;21762;54.480;18.556;2022-10-16T07:26:27;34.15;;;19.15;;
35188;SDS011;21762;54.480;18.556;2022-10-16T07:28:56;27.05;;;16.63;;
35188;SDS011;21762;54.480;18.556;2022-10-16T07:31:24;25.17;;;15.15;;
35188;SDS011;21762;54.480;18.556;2022-10-16T07:33:54;26.73;;;15.98;;
35188;SDS011;21762;54.480;18.556;2022-10-16T07:36:22;25.20;;;14.60;;
35188;SDS011;21762;54.480;18.556;2022-10-16T07:38:50;26.98;;;16.50;;
35188;SDS011;21762;54.480;18.556;2022-10-16T07:41:19;24.90;;;15.90;;
35188;SDS011;21762;54.480;18.556;2022-10-16T07:43:49;28.52;;;17.15;;
35188;SDS011;21762;54.480;18.556;2022-10-16T07:46:18;30.25;;;17.70;;
35188;SDS011;21762;54.480;18.556;2022-10-16T07:48:48;28.98;;;18.38;;
35188;SDS011;21762;54.480;18.556;2022-10-16T07:51:17;29.65;;;18.50;;
35188;SDS011;21762;54.480;18.556;2022-10-16T07:53:48;34.17;;;19.60;;
35188;SDS011;21762;54.480;18.556;2022-10-16T07:56:20;33.67;;;19.67;;
35188;SDS011;21762;54.480;18.556;2022-10-16T07:58:50;33.53;;;20.20;;
35188;SDS011;21762;54.480;18.556;2022-10-16T08:01:18;35.97;;;20.13;;
35188;SDS011;21762;54.480;18.556;2022-10-16T08:03:46;34.80;;;20.77;;
35188;SDS011;21762;54.480;18.556;2022-10-16T08:06:15;35.95;;;22.30;;
35188;SDS011;21762;54.480;18.556;2022-10-16T08:08:44;34.85;;;20.80;;
35188;SDS011;21762;54.480;18.556;2022-10-16T08:11:12;36.70;;;21.55;;
35188;SDS011;21762;54.480;18.556;2022-10-16T08:13:42;41.22;;;22.30;;
35188;SDS011;21762;54.480;18.556;2022-10-16T08:16:11;37.38;;;22.17;;
35188;SDS011;21762;54.480;18.556;2022-10-16T08:18:39;40.22;;;22.42;;
35188;SDS011;21762;54.480;18.556;2022-10-16T08:21:11;39.17;;;22.35;;
35188;SDS011;21762;54.480;18.556;2022-10-16T08:23:42;39.13;;;22.38;;
35188;SDS011;21762;54.480;18.556;2022-10-16T08:26:12;37.13;;;23.35;;
35188;SDS011;21762;54.480;18.556;2022-10-16T08:28:40;41.47;;;23.20;;
35188;SDS011;21762;54.480;18.556;2022-10-16T08:31:09;42.60;;;23.17;;
35188;SDS011;21762;54.480;18.556;2022-10-16T08:33:40;39.30;;;22.67;;
35188;SDS011;21762;54.480;18.556;2022-10-16T08:36:10;40.97;;;24.52;;
35188;SDS011;21762;54.480;18.556;2022-10-16T08:38:57;36.51;;;21.89;;
35188;SDS011;21762;54.480;18.556;2022-10-16T08:44:29;44.78;;;24.10;;
35188;SDS011;21762;54.480;18.556;2022-10-16T08:47:05;42.10;;;24.33;;
35188;SDS011;21762;54.480;18.556;2022-10-16T08:49:39;42.95;;;23.58;;
35188;SDS011;21762;54.480;18.556;2022-10-16T08:52:10;48.13;;;24.70;;
35188;SDS011;21762;54.480;18.556;2022-10-16T08:54:41;41.25;;;23.65;;
35188;SDS011;21762;54.480;18.556;2022-10-16T08:57:11;41.45;;;23.27;;
35188;SDS011;21762;54.480;18.556;2022-10-16T08:59:42;39.67;;;23.58;;
35188;SDS011;21762;54.480;18.556;2022-10-16T09:02:24;42.75;;;24.58;;
35188;SDS011;21762;54.480;18.556;2022-10-16T09:04:58;39.95;;;23.98;;
35188;SDS011;21762;54.480;18.556;2022-10-16T09:07:32;42.30;;;23.55;;
35188;SDS011;21762;54.480;18.556;2022-10-16T09:10:13;41.08;;;24.67;;
35188;SDS011;21762;54.480;18.556;2022-10-16T09:12:55;39.90;;;23.08;;
35188;SDS011;21762;54.480;18.556;2022-10-16T09:15:29;44.42;;;24.10;;
35188;SDS011;21762;54.480;18.556;2022-10-16T09:18:05;38.22;;;22.38;;
35188;SDS011;21762;54.480;18.556;2022-10-16T09:20:41;37.10;;;22.58;;
35188;SDS011;21762;54.480;18.556;2022-10-16T09:23:14;34.70;;;21.48;;
35188;SDS011;21762;54.480;18.556;2022-10-16T09:25:44;32.60;;;20.13;;
35188;SDS011;21762;54.480;18.556;2022-10-16T09:28:15;33.60;;;21.08;;
35188;SDS011;21762;54.480;18.556;2022-10-16T09:30:44;36.63;;;21.30;;
35188;SDS011;21762;54.480;18.556;2022-10-16T09:33:14;34.40;;;20.45;;
35188;SDS011;21762;54.480;18.556;2022-10-16T09:35:47;32.83;;;19.55;;
35188;SDS011;21762;54.480;18.556;2022-10-16T09:38:25;33.63;;;19.75;;
35188;SDS011;21762;54.480;18.556;2022-10-16T09:40:54;36.28;;;20.52;;
35188;SDS011;21762;54.480;18.556;2022-10-16T09:43:24;35.30;;;21.73;;
35188;SDS011;21762;54.480;18.556;2022-10-16T09:45:55;34.15;;;21.25;;
35188;SDS011;21762;54.480;18.556;2022-10-16T09:48:28;32.70;;;20.48;;
35188;SDS011;21762;54.480;18.556;2022-10-16T09:51:03;35.08;;;20.13;;
35188;SDS011;21762;54.480;18.556;2022-10-16T09:53:37;34.67;;;20.75;;
35188;SDS011;21762;54.480;18.556;2022-10-16T09:56:10;36.78;;;20.52;;
35188;SDS011;21762;54.480;18.556;2022-10-16T09:58:43;32.65;;;20.10;;
35188;SDS011;21762;54.480;18.556;2022-10-16T10:01:12;31.50;;;21.02;;
35188;SDS011;21762;54.480;18.556;2022-10-16T10:03:46;33.90;;;19.42;;
35188;SDS011;21762;54.480;18.556;2022-10-16T10:06:17;32.07;;;19.90;;
35188;SDS011;21762;54.480;18.556;2022-10-16T10:08:53;33.33;;;20.80;;
35188;SDS011;21762;54.480;18.556;2022-10-16T10:11:42;36.03;;;21.77;;
35188;SDS011;21762;54.480;18.556;2022-10-16T10:14:16;33.83;;;20.00;;
35188;SDS011;21762;54.480;18.556;2022-10-16T10:16:46;38.03;;;19.98;;
35188;SDS011;21762;54.480;18.556;2022-10-16T10:19:17;30.60;;;19.65;;
35188;SDS011;21762;54.480;18.556;2022-10-16T10:21:46;36.28;;;20.95;;
35188;SDS011;21762;54.480;18.556;2022-10-16T10:24:15;36.03;;;22.33;;
35188;SDS011;21762;54.480;18.556;2022-10-16T10:26:49;30.90;;;19.55;;
35188;SDS011;21762;54.480;18.556;2022-10-16T10:29:25;39.20;;;21.27;;
35188;SDS011;21762;54.480;18.556;2022-10-16T10:32:05;36.72;;;20.90;;
35188;SDS011;21762;54.480;18.556;2022-10-16T10:34:42;33.10;;;20.48;;
35188;SDS011;21762;54.480;18.556;2022-10-16T10:37:23;33.50;;;20.00;;
35188;SDS011;21762;54.480;18.556;2022-10-16T10:40:07;37.20;;;22.63;;
35188;SDS011;21762;54.480;18.556;2022-10-16T10:42:43;36.25;;;20.77;;
35188;SDS011;21762;54.480;18.556;2022-10-16T10:45:17;35.10;;;21.20;;
35188;SDS011;21762;54.480;18.556;2022-10-16T10:47:52;34.15;;;21.50;;
35188;SDS011;21762;54.480;18.556;2022-10-16T10:50:30;38.50;;;21.10;;
35188;SDS011;21762;54.480;18.556;2022-10-16T10:53:04;33.05;;;20.48;;
35188;SDS011;21762;54.480;18.556;2022-10-16T10:55:40;35.95;;;21.35;;
35188;SDS011;21762;54.480;18.556;2022-10-16T10:58:19;31.73;;;20.33;;
35188;SDS011;21762;54.480;18.556;2022-10-16T11:00:55;36.28;;;21.17;;
35188;SDS011;21762;54.480;18.556;2022-10-16T11:03:32;31.23;;;19.85;;
35188;SDS011;21762;54.480;18.556;2022-10-16T11:06:08;31.05;;;19.17;;
35188;SDS011;21762;54.480;18.556;2022-10-16T11:08:40;26.90;;;18.02;;
35188;SDS011;21762;54.480;18.556;2022-10-16T11:11:10;32.30;;;18.02;;
35188;SDS011;21762;54.480;18.556;2022-10-16T11:13:44;27.80;;;17.83;;
35188;SDS011;21762;54.480;18.556;2022-10-16T11:16:20;31.48;;;19.00;;
35188;SDS011;21762;54.480;18.556;2022-10-16T11:18:51;30.63;;;17.58;;
35188;SDS011;21762;54.480;18.556;2022-10-16T11:21:25;24.85;;;15.82;;
35188;SDS011;21762;54.480;18.556;2022-10-16T11:23:57;23.40;;;16.63;;
35188;SDS011;21762;54.480;18.556;2022-10-16T11:26:33;23.92;;;17.08;;
35188;SDS011;21762;54.480;18.556;2022-10-16T11:29:03;22.85;;;16.58;;
35188;SDS011;21762;54.480;18.556;2022-10-16T11:31:34;23.42;;;15.23;;
35188;SDS011;21762;54.480;18.556;2022-10-16T11:34:05;22.70;;;15.15;;
35188;SDS011;21762;54.480;18.556;2022-10-16T11:36:46;21.50;;;14.68;;
35188;SDS011;21762;54.480;18.556;2022-10-16T11:39:19;20.45;;;13.75;;
35188;SDS011;21762;54.480;18.556;2022-10-16T11:41:48;21.70;;;12.15;;
35188;SDS011;21762;54.480;18.556;2022-10-16T11:44:33;18.70;;;12.95;;
35188;SDS011;21762;54.480;18.556;2022-10-16T11:47:07;19.13;;;12.73;;
35188;SDS011;21762;54.480;18.556;2022-10-16T11:49:56;17.80;;;10.88;;
35188;SDS011;21762;54.480;18.556;2022-10-16T11:52:28;15.80;;;12.10;;
35188;SDS011;21762;54.480;18.556;2022-10-16T11:54:59;17.95;;;11.63;;
35188;SDS011;21762;54.480;18.556;2022-10-16T11:57:33;14.55;;;10.48;;
35188;SDS011;21762;54.480;18.556;2022-10-16T12:00:09;15.82;;;10.75;;
35188;SDS011;21762;54.480;18.556;2022-10-16T12:02:53;13.90;;;9.98;;
35188;SDS011;21762;54.480;18.556;2022-10-16T12:05:28;15.50;;;9.95;;
35188;SDS011;21762;54.480;18.556;2022-10-16T12:08:08;12.48;;;9.18;;
35188;SDS011;21762;54.480;18.556;2022-10-16T12:10:38;12.10;;;9.07;;
35188;SDS011;21762;54.480;18.556;2022-10-16T12:16:05;11.10;;;9.30;;
35188;SDS011;21762;54.480;18.556;2022-10-16T12:18:43;15.80;;;9.46;;
35188;SDS011;21762;54.480;18.556;2022-10-16T12:21:13;13.60;;;8.60;;
35188;SDS011;21762;54.480;18.556;2022-10-16T12:23:48;14.68;;;8.80;;
35188;SDS011;21762;54.480;18.556;2022-10-16T12:26:24;15.45;;;8.43;;
35188;SDS011;21762;54.480;18.556;2022-10-16T12:28:53;13.77;;;9.63;;
35188;SDS011;21762;54.480;18.556;2022-10-16T12:31:21;12.52;;;8.20;;
35188;SDS011;21762;54.480;18.556;2022-10-16T12:33:54;12.07;;;8.23;;
35188;SDS011;21762;54.480;18.556;2022-10-16T12:36:26;10.77;;;8.27;;
35188;SDS011;21762;54.480;18.556;2022-10-16T12:38:57;13.50;;;7.35;;
35188;SDS011;21762;54.480;18.556;2022-10-16T12:41:27;11.52;;;7.57;;
35188;SDS011;21762;54.480;18.556;2022-10-16T12:43:57;13.50;;;8.23;;
35188;SDS011;21762;54.480;18.556;2022-10-16T12:46:35;11.15;;;7.38;;
35188;SDS011;21762;54.480;18.556;2022-10-16T12:49:21;10.07;;;7.35;;
35188;SDS011;21762;54.480;18.556;2022-10-16T12:51:51;13.20;;;6.53;;
35188;SDS011;21762;54.480;18.556;2022-10-16T12:54:26;9.43;;;7.60;;
35188;SDS011;21762;54.480;18.556;2022-10-16T12:57:09;12.88;;;7.50;;
35188;SDS011;21762;54.480;18.556;2022-10-16T12:59:50;14.20;;;7.38;;
35188;SDS011;21762;54.480;18.556;2022-10-16T13:02:29;10.93;;;7.10;;
35188;SDS011;21762;54.480;18.556;2022-10-16T13:05:12;8.60;;;6.10;;
35188;SDS011;21762;54.480;18.556;2022-10-16T13:07:49;8.85;;;6.45;;
35188;SDS011;21762;54.480;18.556;2022-10-16T13:10:31;9.40;;;6.55;;
35188;SDS011;21762;54.480;18.556;2022-10-16T13:13:10;9.00;;;6.05;;
35188;SDS011;21762;54.480;18.556;2022-10-16T13:15:51;8.45;;;6.07;;
35188;SDS011;21762;54.480;18.556;2022-10-16T13:18:24;8.32;;;6.25;;
35188;SDS011;21762;54.480;18.556;2022-10-16T13:21:03;9.15;;;6.20;;
35188;SDS011;21762;54.480;18.556;2022-10-16T13:23:38;9.23;;;6.07;;
35188;SDS011;21762;54.480;18.556;2022-10-16T13:26:19;12.52;;;6.63;;
35188;SDS011;21762;54.480;18.556;2022-10-16T13:28:51;9.85;;;5.78;;
35188;SDS011;21762;54.480;18.556;2022-10-16T13:31:19;6.43;;;5.63;;
35188;SDS011;21762;54.480;18.556;2022-10-16T13:33:50;8.07;;;5.90;;
35188;SDS011;21762;54.480;18.556;2022-10-16T13:36:21;8.97;;;5.60;;
35188;SDS011;21762;54.480;18.556;2022-10-16T13:38:59;8.30;;;6.10;;
35188;SDS011;21762;54.480;18.556;2022-10-16T13:41:30;8.50;;;6.35;;
35188;SDS011;21762;54.480;18.556;2022-10-16T13:43:58;8.63;;;5.63;;
35188;SDS011;21762;54.480;18.556;2022-10-16T13:46:26;9.65;;;5.43;;
35188;SDS011;21762;54.480;18.556;2022-10-16T13:48:56;7.45;;;5.90;;
35188;SDS011;21762;54.480;18.556;2022-10-16T13:51:25;8.23;;;5.75;;
35188;SDS011;21762;54.480;18.556;2022-10-16T13:53:54;8.38;;;5.82;;
35188;SDS011;21762;54.480;18.556;2022-10-16T13:56:24;19.25;;;7.20;;
35188;SDS011;21762;54.480;18.556;2022-10-16T13:59:02;9.40;;;6.18;;
35188;SDS011;21762;54.480;18.556;2022-10-16T14:01:31;9.48;;;6.00;;
35188;SDS011;21762;54.480;18.556;2022-10-16T14:04:00;9.02;;;6.68;;
35188;SDS011;21762;54.480;18.556;2022-10-16T14:06:31;10.93;;;6.63;;
35188;SDS011;21762;54.480;18.556;2022-10-16T14:09:05;7.22;;;6.13;;
35188;SDS011;21762;54.480;18.556;2022-10-16T14:11:38;8.57;;;6.30;;
35188;SDS011;21762;54.480;18.556;2022-10-16T14:14:14;8.50;;;6.30;;
35188;SDS011;21762;54.480;18.556;2022-10-16T14:16:42;7.85;;;6.30;;
35188;SDS011;21762;54.480;18.556;2022-10-16T14:19:13;10.40;;;7.40;;
35188;SDS011;21762;54.480;18.556;2022-10-16T14:21:45;13.27;;;7.60;;
35188;SDS011;21762;54.480;18.556;2022-10-16T14:24:14;8.05;;;6.03;;
35188;SDS011;21762;54.480;18.556;2022-10-16T14:26:52;9.52;;;6.35;;
35188;SDS011;21762;54.480;18.556;2022-10-16T14:29:24;11.95;;;7.00;;
35188;SDS011;21762;54.480;18.556;2022-10-16T14:31:54;13.02;;;6.85;;
35188;SDS011;21762;54.480;18.556;2022-10-16T14:34:28;9.23;;;6.80;;
35188;SDS011;21762;54.480;18.556;2022-10-16T14:36:59;6.97;;;5.80;;
35188;SDS011;21762;54.480;18.556;2022-10-16T14:39:38;9.20;;;6.60;;
35188;SDS011;21762;54.480;18.556;2022-10-16T14:42:11;8.57;;;6.40;;
35188;SDS011;21762;54.480;18.556;2022-10-16T14:44:43;12.13;;;6.93;;
35188;SDS011;21762;54.480;18.556;2022-10-16T14:47:13;10.55;;;6.82;;
35188;SDS011;21762;54.480;18.556;2022-10-16T14:49:48;11.52;;;7.57;;
35188;SDS011;21762;54.480;18.556;2022-10-16T14:52:16;12.52;;;7.53;;
35188;SDS011;21762;54.480;18.556;2022-10-16T14:54:47;9.88;;;6.93;;